createdAt,value
2019-04-21T00:05:18.820Z,7.70
2019-04-21T00:10:28.462Z,7.70
2019-04-21T00:15:24.139Z,7.60
2019-04-21T00:20:30.947Z,7.60
2019-04-21T00:25:46.056Z,7.50
2019-04-21T00:31:02.608Z,7.50
2019-04-21T00:35:57.719Z,7.40
2019-04-21T00:41:23.502Z,7.40
2019-04-21T00:46:28.002Z,7.40
2019-04-21T00:51:49.821Z,7.20
2019-04-21T00:56:56.669Z,7.10
2019-04-21T01:01:56.611Z,7.10
2019-04-21T01:07:11.177Z,7.00
2019-04-21T01:12:20.547Z,7.00
2019-04-21T01:17:21.780Z,6.80
2019-04-21T01:22:13.297Z,6.80
2019-04-21T01:27:43.886Z,6.70
2019-04-21T01:32:53.144Z,6.60
2019-04-21T01:38:04.708Z,6.50
2019-04-21T01:43:11.885Z,6.40
2019-04-21T01:48:22.906Z,6.40
2019-04-21T01:53:53.300Z,6.40
2019-04-21T01:58:48.182Z,6.30
2019-04-21T02:04:18.000Z,6.20
2019-04-21T02:09:14.862Z,6.20
2019-04-21T02:14:33.277Z,6.10
2019-04-21T02:19:32.587Z,6.00
2019-04-21T02:24:49.623Z,6.10
2019-04-21T02:29:55.971Z,6.10
2019-04-21T02:40:25.498Z,6.00
2019-04-21T02:45:29.638Z,5.80
2019-04-21T02:50:42.995Z,5.80
2019-04-21T02:55:43.738Z,5.70
2019-04-21T03:01:23.510Z,5.60
2019-04-21T03:06:43.801Z,5.50
2019-04-21T03:11:56.391Z,5.50
2019-04-21T03:16:57.667Z,5.60
2019-04-21T03:22:18.264Z,5.50
2019-04-21T03:47:59.070Z,5.30
2019-04-21T03:53:03.814Z,5.30
2019-04-21T04:03:52.184Z,5.10
2019-04-21T04:24:38.906Z,4.90
2019-04-21T04:40:13.641Z,5.00
2019-04-21T04:45:41.678Z,4.90
2019-04-21T04:50:45.868Z,5.00
2019-04-21T05:01:02.435Z,5.20
2019-04-21T05:06:44.018Z,5.20
2019-04-21T05:17:03.937Z,5.30
2019-04-21T05:21:55.025Z,5.40
2019-04-21T05:26:58.421Z,5.60
2019-04-21T05:32:18.509Z,5.70
2019-04-21T05:37:43.264Z,5.80
2019-04-21T05:42:52.947Z,6.00
2019-04-21T05:48:28.298Z,6.20
2019-04-21T05:58:39.158Z,6.50
2019-04-21T06:03:54.984Z,6.70
2019-04-21T06:09:00.326Z,7.00
2019-04-21T06:14:08.285Z,7.20
2019-04-21T06:19:23.704Z,7.50
2019-04-21T06:24:21.831Z,7.70
2019-04-21T06:29:39.953Z,8.10
2019-04-21T06:35:04.326Z,8.50
2019-04-21T06:40:12.727Z,8.90
2019-04-21T06:45:10.323Z,9.40
2019-04-21T06:50:12.241Z,9.90
2019-04-21T06:55:20.548Z,10.30
2019-04-21T07:00:25.891Z,10.80
2019-04-21T07:05:44.064Z,11.20
2019-04-21T07:10:43.443Z,11.90
2019-04-21T07:15:57.131Z,12.40
2019-04-21T07:21:08.275Z,12.70
2019-04-21T07:26:13.727Z,13.20
2019-04-21T07:31:25.363Z,13.60
2019-04-21T07:36:43.299Z,14.00
2019-04-21T07:41:35.023Z,14.30
2019-04-21T07:46:41.699Z,14.70
2019-04-21T07:52:22.292Z,14.90
2019-04-21T07:57:23.517Z,15.20
2019-04-21T08:02:34.310Z,15.30
2019-04-21T08:07:56.039Z,15.50
2019-04-21T08:12:54.304Z,16.10
2019-04-21T08:18:09.270Z,16.30
2019-04-21T08:23:13.574Z,16.60
2019-04-21T08:28:20.483Z,16.70
2019-04-21T08:38:42.613Z,17.60
2019-04-21T08:43:52.001Z,18.00
2019-04-21T08:49:02.607Z,18.40
2019-04-21T08:54:16.528Z,18.70
2019-04-21T08:59:40.449Z,19.00
2019-04-21T09:04:48.070Z,18.70
2019-04-21T09:09:55.831Z,18.50
2019-04-21T09:15:04.766Z,18.90
2019-04-21T09:20:16.982Z,19.20
2019-04-21T09:25:26.951Z,19.40
2019-04-21T09:30:12.849Z,19.80
2019-04-21T09:35:22.235Z,22.10
2019-04-21T09:40:34.614Z,24.50
2019-04-21T09:45:38.546Z,27.00
2019-04-21T09:50:46.008Z,29.60
2019-04-21T09:55:58.204Z,29.30
2019-04-21T10:01:11.606Z,29.50
2019-04-21T10:06:13.953Z,31.60
2019-04-21T10:11:21.078Z,34.50
2019-04-21T10:16:59.677Z,34.10
2019-04-21T10:22:06.137Z,34.20
2019-04-21T10:27:14.779Z,32.80
2019-04-21T10:32:25.192Z,33.40
2019-04-21T10:37:44.132Z,33.60
2019-04-21T10:42:40.603Z,33.70
2019-04-21T10:47:49.361Z,34.90
2019-04-21T10:53:04.845Z,33.30
2019-04-21T10:58:16.173Z,33.00
2019-04-21T11:03:58.495Z,34.90
2019-04-21T11:09:10.881Z,36.30
2019-04-21T11:14:18.373Z,34.60
2019-04-21T11:19:25.691Z,34.70
2019-04-21T11:24:33.337Z,35.90
2019-04-21T11:29:41.361Z,37.80
2019-04-21T11:34:49.337Z,39.80
2019-04-21T11:40:03.345Z,40.20
2019-04-21T11:45:06.551Z,39.90
2019-04-21T11:50:14.968Z,40.30
2019-04-21T11:55:22.929Z,39.60
2019-04-21T12:00:31.545Z,40.90
2019-04-21T12:05:39.816Z,38.90
2019-04-21T12:10:47.365Z,37.80
2019-04-21T12:15:54.911Z,36.70
2019-04-21T12:21:03.242Z,38.60
2019-04-21T12:26:10.878Z,40.10
2019-04-21T12:31:31.784Z,39.60
2019-04-21T12:36:40.009Z,39.90
2019-04-21T12:41:48.777Z,40.30
2019-04-21T12:46:56.283Z,39.00
2019-04-21T12:52:04.314Z,38.20
2019-04-21T12:57:11.795Z,38.70
2019-04-21T13:02:19.886Z,40.40
2019-04-21T13:07:27.727Z,40.20
2019-04-21T13:12:35.312Z,40.80
2019-04-21T13:17:45.767Z,39.20
2019-04-21T13:22:52.383Z,39.90
2019-04-21T13:28:00.927Z,39.20
2019-04-21T13:33:09.175Z,40.00
2019-04-21T13:38:26.986Z,39.50
2019-04-21T13:43:29.134Z,40.80
2019-04-21T13:48:37.007Z,41.60
2019-04-21T13:53:47.031Z,41.40
2019-04-21T13:58:54.364Z,40.30
2019-04-21T14:04:02.111Z,39.50
2019-04-21T14:09:13.663Z,38.00
2019-04-21T14:14:21.037Z,40.70
2019-04-21T14:19:28.358Z,39.20
2019-04-21T14:24:37.093Z,39.90
2019-04-21T14:29:45.900Z,39.20
2019-04-21T14:34:54.043Z,38.40
2019-04-21T14:40:07.489Z,38.70
2019-04-21T14:45:14.529Z,37.50
2019-04-21T14:50:40.020Z,37.10
2019-04-21T14:55:49.173Z,36.00
2019-04-21T15:01:08.375Z,32.80
2019-04-21T15:06:15.798Z,31.10
2019-04-21T15:11:24.218Z,30.60
2019-04-21T15:16:33.234Z,29.00
2019-04-21T15:21:42.517Z,28.50
2019-04-21T15:26:52.737Z,28.70
2019-04-21T15:31:58.920Z,27.80
2019-04-21T15:37:08.062Z,26.60
2019-04-21T15:42:16.727Z,25.60
2019-04-21T15:47:24.192Z,24.60
2019-04-21T15:52:32.201Z,23.80
2019-04-21T15:57:58.972Z,23.10
2019-04-21T16:03:06.870Z,22.90
2019-04-21T16:08:14.340Z,22.40
2019-04-21T16:13:23.627Z,21.90
2019-04-21T16:18:32.157Z,21.60
2019-04-21T16:23:42.482Z,21.40
2019-04-21T16:28:51.245Z,21.20
2019-04-21T16:34:01.116Z,21.10
2019-04-21T16:39:11.923Z,20.90
2019-04-21T16:44:19.187Z,20.80
2019-04-21T16:49:27.502Z,20.60
2019-04-21T16:54:35.685Z,20.50
2019-04-21T16:59:48.476Z,20.30
2019-04-21T17:04:56.271Z,20.20
2019-04-21T17:10:04.534Z,20.00
2019-04-21T17:15:28.283Z,19.70
2019-04-21T17:20:34.196Z,19.40
2019-04-21T17:25:30.177Z,19.30
2019-04-21T17:30:37.577Z,19.00
2019-04-21T17:35:44.974Z,18.70
2019-04-21T17:40:53.744Z,18.40
2019-04-21T17:46:02.794Z,18.20
2019-04-21T17:51:35.273Z,17.90
2019-04-21T17:57:07.521Z,17.70
2019-04-21T18:02:12.999Z,17.40
2019-04-21T18:07:31.519Z,17.10
2019-04-21T18:12:40.043Z,16.90
2019-04-21T18:17:28.766Z,16.60
2019-04-21T18:23:15.408Z,16.40
2019-04-21T18:28:16.642Z,16.10
2019-04-21T18:33:33.121Z,15.90
2019-04-21T18:39:00.049Z,15.70
2019-04-21T18:44:21.347Z,15.40
2019-04-21T18:49:09.226Z,15.20
2019-04-21T18:54:37.143Z,14.90
2019-04-21T18:59:37.308Z,14.60
2019-04-21T19:04:41.334Z,14.40
2019-04-21T19:15:15.999Z,14.00
2019-04-21T19:20:29.495Z,13.80
2019-04-21T19:25:41.365Z,13.60
2019-04-21T19:30:56.474Z,13.40
2019-04-21T19:35:41.422Z,13.30
2019-04-21T19:41:03.432Z,13.00
2019-04-21T19:46:14.071Z,12.80
2019-04-21T19:51:24.487Z,12.70
2019-04-21T19:56:19.505Z,12.60
2019-04-21T20:01:27.678Z,12.40
2019-04-21T20:06:48.916Z,12.30
2019-04-21T20:12:02.860Z,12.20
2019-04-21T20:17:08.911Z,12.00
2019-04-21T20:22:09.217Z,11.70
2019-04-21T20:27:30.821Z,11.70
2019-04-21T20:32:54.988Z,11.60
2019-04-21T20:37:47.930Z,11.50
2019-04-21T20:42:58.558Z,11.30
2019-04-21T20:47:54.605Z,11.20
2019-04-21T20:53:19.649Z,11.10
2019-04-21T20:58:30.892Z,10.90
2019-04-21T21:03:39.337Z,10.70
2019-04-21T21:08:44.636Z,10.80
2019-04-21T21:14:05.971Z,10.70
2019-04-21T21:19:18.136Z,10.70
2019-04-21T21:24:11.050Z,10.20
2019-04-21T21:29:25.326Z,10.20
2019-04-21T21:34:34.513Z,10.20
2019-04-21T21:39:49.184Z,10.10
2019-04-21T21:44:35.267Z,9.90
2019-04-21T21:49:55.432Z,9.90
2019-04-21T21:54:51.900Z,9.80
2019-04-21T22:00:05.685Z,9.80
2019-04-21T22:05:16.772Z,9.80
2019-04-21T22:10:21.273Z,9.70
2019-04-21T22:15:32.019Z,9.60
2019-04-21T22:20:56.559Z,9.50
2019-04-21T22:25:47.522Z,9.40
2019-04-21T22:30:56.518Z,9.30
2019-04-21T22:36:18.174Z,9.20
2019-04-21T22:41:26.340Z,9.20
2019-04-21T22:46:24.466Z,9.10
2019-04-21T22:51:37.450Z,9.00
2019-04-21T22:56:50.392Z,8.80
2019-04-21T23:01:50.804Z,8.80
2019-04-21T23:07:02.943Z,8.80
2019-04-21T23:12:08.228Z,8.70
2019-04-21T23:17:32.339Z,8.50
2019-04-21T23:22:56.890Z,8.50
2019-04-21T23:27:53.879Z,8.40
2019-04-21T23:32:51.225Z,8.40
2019-04-21T23:37:58.668Z,8.30
2019-04-21T23:43:09.636Z,8.30
2019-04-21T23:48:26.067Z,8.00
2019-04-21T23:53:21.501Z,7.80
2019-04-21T23:58:32.630Z,7.80
